Time;durP1;ratioP1;P1;durP2;ratioP2;P2;SDS_P1;SDS_P2;PMS_P1;PMS_P2;Temp;Humidity;BMP_temperature;BMP_pressure;BME280_temperature;BME280_humidity;BME280_pressure;Samples;Min_cycle;Max_cycle;Signal;HPM_P1;HPM_P2
2021/12/11 00:01:01;;;;;;;44.58;20.37;;;;;;;3.86;88.07;98132.67;1821324;79;21648;-80
2021/12/11 00:03:33;;;;;;;47.58;20.37;;;;;;;3.89;87.99;98139.92;1800617;78;21016;-81
2021/12/11 00:06:05;;;;;;;43.28;19.92;;;;;;;3.88;87.98;98138.23;1819497;78;21121;-80
2021/12/11 00:08:33;;;;;;;44.38;18.70;;;;;;;3.91;88.08;98136.89;1799013;79;22181;-80
2021/12/11 00:11:08;;;;;;;48.55;21.60;;;;;;;3.91;88.03;98143.77;1804298;78;21047;-81
2021/12/11 00:13:39;;;;;;;49.00;23.02;;;;;;;3.95;88.21;98142.84;1816624;79;21011;-80
2021/12/11 00:16:09;;;;;;;43.60;21.12;;;;;;;3.98;88.32;98146.67;1790352;78;21478;-80
2021/12/11 00:18:37;;;;;;;43.73;22.02;;;;;;;4.01;88.25;98146.62;1800106;78;21008;-80
2021/12/11 00:21:09;;;;;;;48.55;22.73;;;;;;;4.07;87.86;98154.69;1823647;78;21532;-81
2021/12/11 00:23:52;;;;;;;46.68;23.70;;;;;;;4.02;87.60;98143.60;1814224;78;21259;-81
2021/12/11 00:26:30;;;;;;;46.60;22.15;;;;;;;3.98;87.91;98150.09;1785318;78;21054;-81
2021/12/11 00:28:58;;;;;;;46.90;23.38;;;;;;;4.01;88.15;98159.92;1806806;78;21554;-79
2021/12/11 00:31:28;;;;;;;48.68;22.70;;;;;;;3.95;87.91;98170.69;1823273;79;21490;-82
2021/12/11 00:33:56;;;;;;;46.48;23.00;;;;;;;3.92;87.41;98182.33;1820664;78;21028;-81
2021/12/11 00:36:31;;;;;;;54.30;23.27;;;;;;;3.85;87.50;98183.26;1805373;79;21000;-81
2021/12/11 00:39:08;;;;;;;47.53;21.90;;;;;;;3.78;87.47;98185.06;1811503;79;21503;-81
2021/12/11 00:41:35;;;;;;;45.48;19.23;;;;;;;3.75;87.79;98199.67;1819112;79;21496;-80
2021/12/11 00:44:03;;;;;;;38.92;19.00;;;;;;;3.74;87.11;98198.83;1813084;78;21024;-81
2021/12/11 00:46:31;;;;;;;42.25;19.10;;;;;;;3.68;87.89;98194.17;1791705;79;20972;-81
2021/12/11 00:49:17;;;;;;;44.23;20.00;;;;;;;3.67;88.03;98198.92;1744082;80;21520;-79
2021/12/11 00:51:57;;;;;;;51.10;18.70;;;;;;;3.65;87.79;98198.92;1761667;81;21426;-80
2021/12/11 00:54:24;;;;;;;40.38;18.20;;;;;;;3.67;88.11;98194.63;1750326;81;21004;-79
2021/12/11 00:56:51;;;;;;;40.95;17.37;;;;;;;3.68;87.99;98189.03;1762614;81;21061;-81
2021/12/11 00:59:21;;;;;;;39.60;18.00;;;;;;;3.70;88.12;98178.30;1752063;81;21132;-81
2021/12/11 01:02:01;;;;;;;41.55;17.25;;;;;;;3.68;88.11;98174.90;1772036;79;20981;-81
2021/12/11 01:04:41;;;;;;;40.85;18.27;;;;;;;3.71;88.22;98171.86;1735599;81;20977;-80
2021/12/11 01:07:18;;;;;;;36.73;18.48;;;;;;;3.73;88.26;98180.84;1769848;79;21037;-81
2021/12/11 01:09:55;;;;;;;39.18;18.20;;;;;;;3.78;88.28;98187.64;1787661;79;21011;-79
2021/12/11 01:12:45;;;;;;;38.98;17.95;;;;;;;3.81;88.40;98179.03;1744692;82;21022;-80
2021/12/11 01:15:34;;;;;;;37.45;19.45;;;;;;;3.87;88.32;98178.95;1748986;82;21061;-80
2021/12/11 01:18:22;;;;;;;41.80;19.70;;;;;;;3.87;88.28;98181.96;1729762;81;21035;-81
2021/12/11 01:21:01;;;;;;;36.65;19.17;;;;;;;3.85;88.12;98179.84;1776960;79;21006;-81
2021/12/11 01:26:03;;;;;;;35.33;17.57;;;;;;;3.91;88.32;98168.19;1793859;79;20943;-82
2021/12/11 01:28:31;;;;;;;44.03;20.27;;;;;;;3.93;88.45;98160.02;1761922;81;21053;-82
2021/12/11 01:31:00;;;;;;;42.75;20.70;;;;;;;3.94;87.93;98161.73;1773759;78;20999;-81
2021/12/11 01:33:27;;;;;;;39.40;19.42;;;;;;;3.90;87.89;98180.20;1771828;79;20997;-82
2021/12/11 01:35:54;;;;;;;44.13;21.37;;;;;;;3.87;87.96;98176.81;1737631;81;21399;-80
2021/12/11 01:38:25;;;;;;;45.92;21.00;;;;;;;3.85;87.73;98172.98;1750688;80;20978;-79
2021/12/11 01:40:57;;;;;;;43.55;20.62;;;;;;;3.86;88.01;98180.24;1736333;81;21019;-81
2021/12/11 01:43:28;;;;;;;47.55;21.07;;;;;;;3.87;88.04;98196.11;1745954;81;20980;-81
2021/12/11 01:45:58;;;;;;;45.55;20.27;;;;;;;3.85;88.20;98204.27;1755446;80;20998;-80
2021/12/11 01:48:30;;;;;;;42.53;20.65;;;;;;;3.85;88.45;98209.41;1824973;78;20977;-81
2021/12/11 01:51:14;;;;;;;39.90;17.20;;;;;;;3.86;87.87;98207.24;1835606;78;21019;-81
2021/12/11 01:53:45;;;;;;;34.98;16.85;;;;;;;3.85;87.90;98211.55;1820731;76;21066;-79
2021/12/11 01:56:17;;;;;;;41.95;18.17;;;;;;;3.85;87.33;98204.27;1830967;77;21015;-80
2021/12/11 01:58:56;;;;;;;41.75;17.57;;;;;;;3.85;87.31;98201.70;1820837;78;20988;-78
2021/12/11 02:01:25;;;;;;;49.93;18.10;;;;;;;3.86;87.39;98202.09;1800773;78;21038;-80
2021/12/11 02:03:54;;;;;;;41.75;17.82;;;;;;;3.85;87.70;98206.41;1808963;78;21061;-81
2021/12/11 02:06:25;;;;;;;40.08;18.55;;;;;;;3.86;88.09;98205.55;1834607;78;20944;-81
2021/12/11 02:08:51;;;;;;;40.17;18.95;;;;;;;3.92;88.06;98208.45;1820278;78;21008;-79
2021/12/11 02:11:23;;;;;;;38.73;16.62;;;;;;;3.96;88.50;98210.98;1830007;78;21022;-81
2021/12/11 02:13:58;;;;;;;39.85;19.20;;;;;;;4.02;88.49;98216.49;1820471;78;21011;-81
2021/12/11 02:16:45;;;;;;;41.70;17.92;;;;;;;4.06;88.52;98206.58;1826396;78;21047;-86
2021/12/11 02:19:17;;;;;;;39.25;17.37;;;;;;;4.07;88.53;98209.98;1800999;78;21019;-79
2021/12/11 02:22:04;;;;;;;70.42;25.60;;;;;;;4.07;88.53;98213.41;1809051;78;21023;-84
2021/12/11 02:24:36;;;;;;;105.55;41.33;;;;;;;4.10;88.83;98206.95;1813160;78;21130;-79
2021/12/11 02:27:26;;;;;;;85.25;35.80;;;;;;;4.19;89.00;98220.95;1808400;78;21011;-79
2021/12/11 02:30:03;;;;;;;55.45;25.40;;;;;;;4.25;88.78;98230.77;1817765;78;21449;-81
2021/12/11 02:32:44;;;;;;;55.58;25.55;;;;;;;4.30;88.64;98219.54;1816736;78;21025;-81
2021/12/11 02:35:33;;;;;;;57.03;29.23;;;;;;;4.31;88.66;98206.23;1815396;78;21514;-81
2021/12/11 02:38:10;;;;;;;53.60;25.82;;;;;;;4.32;88.33;98197.20;1818397;78;20940;-80
2021/12/11 02:40:44;;;;;;;48.25;23.67;;;;;;;4.35;88.64;98209.17;1822004;78;22230;-81
2021/12/11 02:43:25;;;;;;;52.30;25.02;;;;;;;4.34;88.54;98210.91;1817018;76;20972;-81
2021/12/11 02:46:00;;;;;;;45.70;22.07;;;;;;;4.35;88.32;98203.58;1824312;78;21002;-81
2021/12/11 02:48:38;;;;;;;45.83;21.95;;;;;;;4.34;88.51;98199.77;1798134;78;20999;-81
2021/12/11 02:51:19;;;;;;;40.08;20.20;;;;;;;4.32;88.48;98201.52;1803081;77;21000;-80
2021/12/11 02:53:50;;;;;;;55.25;23.92;;;;;;;4.30;88.52;98196.38;1804868;77;21031;-79
2021/12/11 02:56:22;;;;;;;51.83;23.40;;;;;;;4.30;88.60;98188.66;1814821;77;21503;-82
2021/12/11 02:58:56;;;;;;;54.67;25.37;;;;;;;4.29;88.66;98183.53;1829920;78;20992;-81
2021/12/11 03:01:29;;;;;;;;;;;;;;;4.30;88.67;98189.11;1828291;77;21031;-81
2021/12/11 03:04:18;;;;;;;42.30;19.50;;;;;;;4.25;88.71;98188.31;1808146;78;20127;-81
2021/12/11 03:06:43;;;;;;;47.95;22.70;;;;;;;4.23;88.67;98190.05;1802469;77;20992;-81
2021/12/11 03:09:12;;;;;;;47.90;19.98;;;;;;;4.17;88.77;98200.83;1815595;78;21507;-80
2021/12/11 03:11:39;;;;;;;50.67;20.82;;;;;;;4.16;88.83;98201.72;1802470;78;21047;-80
2021/12/11 03:14:12;;;;;;;41.98;18.52;;;;;;;4.15;88.44;98179.42;1812990;77;21487;-81
2021/12/11 03:16:40;;;;;;;44.38;18.48;;;;;;;4.15;88.62;98183.72;1828086;77;21039;-81
2021/12/11 03:19:12;;;;;;;41.53;19.42;;;;;;;4.15;88.86;98203.02;1816697;77;21514;-81
2021/12/11 03:21:40;;;;;;;47.80;20.10;;;;;;;4.17;88.90;98227.84;1820343;77;21019;-81
2021/12/11 03:24:08;;;;;;;53.20;22.22;;;;;;;4.18;89.08;98205.12;1802409;77;21003;-81
2021/12/11 03:26:36;;;;;;;50.60;20.68;;;;;;;4.22;88.76;98199.91;1830341;78;20996;-81
2021/12/11 03:29:03;;;;;;;50.50;20.08;;;;;;;4.18;89.14;98206.41;1816789;77;21502;-79
2021/12/11 03:31:30;;;;;;;43.00;18.23;;;;;;;4.19;89.02;98217.09;1813759;78;21503;-79
2021/12/11 03:33:59;;;;;;;41.53;19.70;;;;;;;4.23;89.11;98225.63;1818692;77;21050;-79
2021/12/11 03:36:27;;;;;;;45.17;19.62;;;;;;;4.30;89.37;98232.41;1811691;78;20992;-80
2021/12/11 03:38:58;;;;;;;41.60;16.20;;;;;;;4.35;89.21;98228.47;1839905;77;21750;-81
2021/12/11 03:41:28;;;;;;;35.40;14.83;;;;;;;4.42;89.16;98221.50;1797972;77;21038;-80
2021/12/11 03:43:56;;;;;;;34.58;13.55;;;;;;;4.41;88.76;98221.95;1815615;77;21471;-80
2021/12/11 03:46:24;;;;;;;29.65;12.75;;;;;;;4.41;88.73;98228.38;1829394;78;21055;-79
2021/12/11 03:49:02;;;;;;;27.45;11.45;;;;;;;4.46;88.79;98225.32;1826916;77;21001;-82
2021/12/11 03:51:33;;;;;;;50.35;19.00;;;;;;;4.42;88.54;98218.52;1829122;77;21048;-81
2021/12/11 03:54:04;;;;;;;55.65;18.92;;;;;;;4.41;88.41;98233.53;1829961;77;21023;-81
2021/12/11 03:56:31;;;;;;;34.18;14.33;;;;;;;4.39;88.42;98223.70;1837380;77;21001;-81
2021/12/11 03:58:58;;;;;;;56.77;21.12;;;;;;;4.39;88.25;98215.97;1833773;77;21053;-82
2021/12/11 04:01:34;;;;;;;45.38;17.50;;;;;;;4.34;88.26;98213.92;1820679;77;20993;-81
2021/12/11 04:04:11;;;;;;;31.90;13.05;;;;;;;4.29;88.41;98210.55;1820931;77;20977;-81
2021/12/11 04:06:39;;;;;;;34.23;14.58;;;;;;;4.23;87.59;98206.78;1838299;77;20965;-82
2021/12/11 04:09:12;;;;;;;33.83;13.98;;;;;;;4.14;87.89;98202.17;1836677;77;21485;-81
2021/12/11 04:11:40;;;;;;;31.15;12.98;;;;;;;4.09;88.51;98203.10;1817866;77;20945;-81
2021/12/11 04:14:15;;;;;;;39.27;14.93;;;;;;;4.06;88.18;98204.41;1831011;77;20992;-81
2021/12/11 04:16:43;;;;;;;41.73;16.37;;;;;;;4.02;88.73;98207.48;1833206;77;21295;-82
2021/12/11 04:19:12;;;;;;;30.95;12.15;;;;;;;4.00;89.37;98200.23;1841887;77;21250;-82
2021/12/11 04:21:41;;;;;;;34.75;13.03;;;;;;;4.00;89.00;98191.23;1832051;77;20946;-81
2021/12/11 04:24:10;;;;;;;35.08;13.68;;;;;;;3.99;88.87;98183.92;1840621;77;20995;-81
2021/12/11 04:26:37;;;;;;;39.10;14.30;;;;;;;3.98;89.12;98186.09;1828669;77;21017;-83
2021/12/11 04:29:05;;;;;;;35.70;14.13;;;;;;;3.92;89.45;98192.61;1825778;77;20962;-82
2021/12/11 04:31:34;;;;;;;41.48;14.75;;;;;;;3.94;89.57;98204.17;1833550;77;20985;-82
2021/12/11 04:34:06;;;;;;;34.65;12.82;;;;;;;3.95;89.60;98205.85;1838845;77;20984;-82
2021/12/11 04:36:41;;;;;;;39.53;15.10;;;;;;;3.94;89.72;98204.17;1832335;78;21013;-83
2021/12/11 04:39:12;;;;;;;42.20;15.28;;;;;;;3.93;89.89;98209.72;1834644;77;21090;-82
2021/12/11 04:41:52;;;;;;;41.35;13.45;;;;;;;3.94;90.03;98211.88;1833021;77;20953;-82
2021/12/11 04:44:17;;;;;;;34.23;12.60;;;;;;;3.98;89.73;98210.53;1825651;77;21009;-83
2021/12/11 04:46:44;;;;;;;36.80;14.05;;;;;;;3.99;89.66;98219.93;1835472;77;21004;-82
2021/12/11 04:49:24;;;;;;;33.95;13.40;;;;;;;3.97;89.69;98222.95;1832315;78;20967;-83
2021/12/11 04:51:59;;;;;;;36.98;14.25;;;;;;;4.00;89.70;98233.66;1819315;78;20988;-82
2021/12/11 05:04:51;;;;;;;40.38;13.93;;;;;;;3.99;89.87;98245.65;1776902;78;21072;-82
2021/12/11 05:07:31;;;;;;;39.20;15.35;;;;;;;4.03;89.87;98258.48;1826423;77;20975;-81
2021/12/11 05:10:16;;;;;;;41.70;14.43;;;;;;;4.06;89.82;98258.43;1833651;78;20998;-82
2021/12/11 05:12:42;;;;;;;43.13;16.17;;;;;;;4.07;90.10;98263.56;1818865;78;21042;-83
2021/12/11 05:15:23;;;;;;;39.85;14.87;;;;;;;4.10;90.12;98264.83;1834497;77;20909;-82
2021/12/11 05:17:51;;;;;;;43.28;16.23;;;;;;;4.09;89.72;98263.11;1835078;78;20992;-82
2021/12/11 05:20:22;;;;;;;43.90;16.55;;;;;;;4.06;89.52;98258.43;1824530;77;21003;-83
2021/12/11 05:22:50;;;;;;;36.95;14.85;;;;;;;4.05;89.36;98256.30;1836930;78;20979;-82
2021/12/11 05:25:17;;;;;;;43.70;14.00;;;;;;;4.01;89.43;98255.08;1833211;78;21025;-83
2021/12/11 05:27:46;;;;;;;43.15;15.08;;;;;;;3.90;89.57;98253.49;1823008;79;20963;-83
2021/12/11 05:30:18;;;;;;;37.10;13.20;;;;;;;3.92;90.21;98269.76;1826739;78;20969;-83
2021/12/11 05:32:46;;;;;;;43.87;15.18;;;;;;;3.94;89.56;98269.75;1824073;79;20987;-84
2021/12/11 05:35:15;;;;;;;35.92;12.82;;;;;;;3.93;89.63;98274.02;1799697;78;20994;-82
2021/12/11 05:37:42;;;;;;;42.05;16.25;;;;;;;3.93;89.89;98261.59;1778922;80;21038;-82
2021/12/11 05:40:12;;;;;;;52.27;15.30;;;;;;;3.89;90.18;98262.50;1806762;79;21060;-83
2021/12/11 05:42:39;;;;;;;47.05;16.82;;;;;;;3.91;90.62;98280.05;1838045;78;20988;-83
2021/12/11 05:45:06;;;;;;;44.85;15.30;;;;;;;3.96;90.56;98282.16;1823001;78;20999;-84
2021/12/11 05:47:33;;;;;;;37.13;14.00;;;;;;;3.99;90.73;98285.95;1821599;78;20968;-83
2021/12/11 05:50:00;;;;;;;38.83;13.22;;;;;;;4.03;90.44;98282.48;1833320;78;20925;-83
2021/12/11 05:52:26;;;;;;;40.58;13.95;;;;;;;4.09;90.30;98282.84;1827345;78;21015;-83
2021/12/11 05:54:53;;;;;;;36.98;13.68;;;;;;;4.06;90.42;98279.01;1832871;77;20989;-83
2021/12/11 05:57:22;;;;;;;36.85;13.15;;;;;;;4.05;90.41;98285.87;1833219;77;21003;-82
2021/12/11 05:59:51;;;;;;;39.53;15.70;;;;;;;4.10;90.41;98294.41;1837880;78;21122;-82
2021/12/11 06:02:23;;;;;;;33.30;13.83;;;;;;;4.07;90.32;98283.30;1821372;78;21019;-83
2021/12/11 06:04:53;;;;;;;40.60;15.10;;;;;;;4.08;90.39;98283.70;1806001;79;20967;-83
2021/12/11 06:07:23;;;;;;;42.00;14.63;;;;;;;4.10;89.86;98289.67;1818821;78;20987;-84
2021/12/11 06:09:55;;;;;;;33.67;14.50;;;;;;;4.05;90.26;98297.45;1837993;78;20931;-84
2021/12/11 06:12:23;;;;;;;41.75;18.00;;;;;;;4.07;89.40;98297.45;1838136;77;21280;-83
2021/12/11 06:14:51;;;;;;;38.13;17.10;;;;;;;4.01;89.32;98311.22;1835608;77;20976;-83
2021/12/11 06:17:23;;;;;;;37.45;14.93;;;;;;;3.95;89.82;98317.72;1837589;78;21036;-84
2021/12/11 06:19:53;;;;;;;39.00;14.28;;;;;;;3.91;89.46;98319.47;1837355;77;21076;-84
2021/12/11 06:22:25;;;;;;;39.15;16.17;;;;;;;3.91;89.58;98323.77;1819378;78;21000;-83
2021/12/11 06:24:52;;;;;;;42.23;16.05;;;;;;;3.88;89.42;98338.81;1838546;78;21026;-83
2021/12/11 06:27:19;;;;;;;33.35;12.98;;;;;;;3.86;89.89;98349.55;1831982;76;20999;-84
2021/12/11 06:29:46;;;;;;;31.82;12.23;;;;;;;3.88;89.77;98353.36;1824751;77;20939;-83
2021/12/11 06:32:12;;;;;;;31.55;12.75;;;;;;;3.89;89.62;98369.22;1832364;76;21519;-83
2021/12/11 06:34:39;;;;;;;36.00;13.53;;;;;;;3.87;89.60;98374.38;1824063;78;20993;-82
2021/12/11 06:37:09;;;;;;;36.50;13.98;;;;;;;3.86;89.75;98370.12;1829949;78;20996;-83
2021/12/11 06:39:36;;;;;;;45.73;15.15;;;;;;;3.84;89.66;98373.55;1805683;78;20967;-81
2021/12/11 06:42:06;;;;;;;56.90;20.40;;;;;;;3.83;89.65;98370.57;1807093;78;20984;-84
2021/12/11 06:44:34;;;;;;;54.33;19.12;;;;;;;3.82;89.68;98386.44;1839589;78;21005;-83
2021/12/11 06:47:04;;;;;;;86.85;27.75;;;;;;;3.79;89.54;98385.17;1838879;77;21050;-83
2021/12/11 06:49:35;;;;;;;86.70;28.60;;;;;;;3.77;89.46;98390.76;1830134;77;21070;-83
2021/12/11 06:52:06;;;;;;;61.68;20.85;;;;;;;3.72;90.07;98387.36;1826816;78;20955;-83
2021/12/11 06:54:33;;;;;;;40.10;16.90;;;;;;;3.72;90.07;98396.36;1815323;77;21070;-84
2021/12/11 06:57:00;;;;;;;36.88;13.15;;;;;;;3.71;90.25;98407.53;1821778;78;21425;-84
2021/12/11 06:59:27;;;;;;;31.97;12.82;;;;;;;3.71;90.28;98408.37;1839149;75;20992;-82
2021/12/11 07:01:54;;;;;;;33.48;12.13;;;;;;;3.74;90.35;98420.34;1815821;78;21016;-83
2021/12/11 07:04:21;;;;;;;32.98;11.93;;;;;;;3.73;90.50;98424.64;1829188;77;21026;-84
2021/12/11 07:06:51;;;;;;;29.48;11.85;;;;;;;3.77;90.38;98426.31;1836219;76;20979;-83
2021/12/11 07:09:21;;;;;;;37.98;13.65;;;;;;;3.81;90.18;98428.44;1827703;77;20929;-84
2021/12/11 07:11:50;;;;;;;36.25;12.63;;;;;;;3.79;90.13;98436.15;1822438;78;20940;-83
2021/12/11 07:14:19;;;;;;;32.88;13.60;;;;;;;3.80;90.17;98439.59;1835317;77;21023;-82
2021/12/11 07:16:46;;;;;;;28.98;11.05;;;;;;;3.83;90.12;98437.42;1833060;78;21083;-83
2021/12/11 07:19:13;;;;;;;38.98;13.10;;;;;;;3.90;90.00;98442.51;1805797;78;21089;-82
2021/12/11 07:21:42;;;;;;;33.70;14.05;;;;;;;3.87;89.98;98451.96;1842084;76;20987;-83
2021/12/11 07:24:12;;;;;;;34.63;14.20;;;;;;;3.88;90.07;98454.53;1841076;78;21043;-84
2021/12/11 07:26:39;;;;;;;34.63;14.95;;;;;;;3.89;90.02;98454.93;1816738;78;20991;-82
2021/12/11 07:29:16;;;;;;;34.40;13.25;;;;;;;3.90;89.83;98457.06;1815800;78;21140;-83
2021/12/11 07:31:45;;;;;;;32.83;13.58;;;;;;;3.89;89.90;98457.94;1813951;78;20976;-84
2021/12/11 07:34:13;;;;;;;36.45;14.00;;;;;;;3.88;89.62;98460.95;1822478;78;20967;-83
2021/12/11 07:36:40;;;;;;;31.33;11.10;;;;;;;3.90;89.42;98458.34;1832665;78;21015;-84
2021/12/11 07:39:12;;;;;;;30.45;11.68;;;;;;;3.87;89.51;98450.67;1835081;78;21019;-84
2021/12/11 07:41:39;;;;;;;29.63;11.65;;;;;;;3.84;89.87;98448.99;1831819;78;21009;-84
2021/12/11 07:44:06;;;;;;;34.27;12.82;;;;;;;3.89;89.61;98459.23;1831424;77;20947;-82
2021/12/11 07:46:34;;;;;;;36.70;13.10;;;;;;;3.89;89.92;98457.50;1835054;78;21047;-82
2021/12/11 07:49:03;;;;;;;40.55;14.18;;;;;;;3.90;89.93;98455.36;1841292;77;21028;-83
2021/12/11 07:51:32;;;;;;;41.10;14.05;;;;;;;3.95;89.79;98454.03;1847483;76;20969;-83
2021/12/11 07:53:59;;;;;;;36.83;13.83;;;;;;;3.94;89.85;98457.05;1832548;77;21000;-83
2021/12/11 07:56:26;;;;;;;40.23;13.28;;;;;;;3.98;89.88;98460.45;1819410;77;20932;-83
2021/12/11 07:58:59;;;;;;;40.23;13.70;;;;;;;3.91;89.92;98461.35;1853255;77;21246;-83
2021/12/11 08:01:28;;;;;;;32.50;13.60;;;;;;;3.93;90.09;98463.48;1847111;77;20958;-82
2021/12/11 08:03:59;;;;;;;37.33;13.00;;;;;;;3.98;90.01;98465.15;1836080;76;21027;-84
2021/12/11 08:06:24;;;;;;;38.15;14.40;;;;;;;4.04;89.68;98467.23;1858238;76;20974;-82
2021/12/11 08:08:51;;;;;;;28.70;12.75;;;;;;;4.02;89.28;98476.27;1839263;78;20962;-83
2021/12/11 08:11:20;;;;;;;38.85;16.02;;;;;;;4.06;89.04;98472.80;1842532;78;21001;-83
2021/12/11 08:13:51;;;;;;;31.93;13.30;;;;;;;4.00;89.51;98469.00;1825102;78;20977;-84
2021/12/11 08:16:24;;;;;;;35.63;13.70;;;;;;;4.03;89.14;98466.38;1857336;76;20943;-84
2021/12/11 08:18:53;;;;;;;33.53;12.10;;;;;;;4.06;88.78;98461.64;1837636;77;20954;-84
2021/12/11 08:21:21;;;;;;;27.13;10.82;;;;;;;4.02;88.63;98467.27;1838282;77;20951;-84
2021/12/11 08:23:53;;;;;;;27.52;11.63;;;;;;;4.02;88.60;98469.84;1824685;77;20974;-83
2021/12/11 08:26:20;;;;;;;34.90;13.68;;;;;;;4.01;88.86;98471.13;1826595;77;20918;-83
2021/12/11 08:28:50;;;;;;;34.13;13.93;;;;;;;4.09;88.81;98473.20;1829263;77;21009;-84
2021/12/11 08:31:19;;;;;;;30.77;13.90;;;;;;;4.10;89.15;98469.75;1811406;76;20975;-84
2021/12/11 08:33:47;;;;;;;35.83;15.43;;;;;;;4.17;89.05;98477.84;1862291;76;21003;-83
2021/12/11 08:36:14;;;;;;;46.77;17.30;;;;;;;4.22;89.27;98475.21;1841569;76;21542;-84
2021/12/11 08:38:43;;;;;;;46.18;16.20;;;;;;;4.29;89.42;98473.02;1837129;77;21033;-84
2021/12/11 08:41:13;;;;;;;36.77;15.63;;;;;;;4.30;89.48;98472.16;1812288;77;21001;-83
2021/12/11 08:43:40;;;;;;;32.17;13.53;;;;;;;4.35;89.54;98481.95;1809910;79;21040;-84
2021/12/11 08:46:12;;;;;;;42.62;13.95;;;;;;;4.42;89.39;98485.31;1819373;77;21460;-84
2021/12/11 08:48:43;;;;;;;33.98;14.15;;;;;;;4.51;89.45;98484.78;1822235;76;21051;-82
2021/12/11 08:51:15;;;;;;;38.17;16.52;;;;;;;4.53;89.23;98492.05;1837283;77;20978;-83
2021/12/11 08:53:41;;;;;;;38.33;15.85;;;;;;;4.56;89.29;98489.47;1847056;78;21042;-82
2021/12/11 08:56:10;;;;;;;36.88;16.75;;;;;;;4.63;89.18;98488.95;1843748;78;20972;-84
2021/12/11 08:58:40;;;;;;;40.95;17.57;;;;;;;4.65;88.83;98494.09;1814495;79;21002;-84
2021/12/11 09:01:24;;;;;;;37.65;16.75;;;;;;;4.67;88.61;98491.06;1830623;78;21014;-84
2021/12/11 09:04:12;;;;;;;44.13;19.48;;;;;;;4.68;88.62;98491.50;1803170;78;21154;-83
2021/12/11 09:06:47;;;;;;;45.28;19.45;;;;;;;4.67;88.59;98498.79;1839234;77;21015;-83
2021/12/11 09:09:35;;;;;;;40.60;18.73;;;;;;;4.73;88.54;98495.70;1816233;78;21243;-83
2021/12/11 09:12:24;;;;;;;36.85;16.02;;;;;;;4.73;88.53;98498.72;1834728;77;21047;-81
2021/12/11 09:15:00;;;;;;;40.03;15.72;;;;;;;4.73;88.39;98499.56;1838599;77;20982;-83
2021/12/11 09:17:31;;;;;;;46.08;17.67;;;;;;;4.73;88.31;98510.31;1859495;77;20984;-82
2021/12/11 09:20:13;;;;;;;47.17;16.67;;;;;;;4.74;88.64;98516.73;1830056;77;20924;-83
2021/12/11 09:22:47;;;;;;;46.40;18.70;;;;;;;4.80;88.52;98508.54;1811465;78;21038;-83
2021/12/11 09:25:25;;;;;;;34.83;14.00;;;;;;;4.84;88.54;98508.48;1835375;77;21022;-82
2021/12/11 09:28:03;;;;;;;45.92;15.90;;;;;;;4.92;88.68;98503.23;1842309;78;20990;-84
2021/12/11 09:30:35;;;;;;;41.25;16.23;;;;;;;4.97;88.51;98498.45;1829520;77;21103;-84
2021/12/11 09:33:08;;;;;;;41.25;15.63;;;;;;;5.09;88.66;98500.44;1831778;78;20994;-84
2021/12/11 09:35:43;;;;;;;34.03;15.23;;;;;;;5.11;88.20;98491.84;1853150;77;21424;-81
2021/12/11 09:38:18;;;;;;;42.73;15.60;;;;;;;5.15;88.23;98484.48;1856313;77;21124;-83
2021/12/11 09:40:55;;;;;;;42.48;16.27;;;;;;;5.20;88.04;98489.58;1843735;77;21023;-84
2021/12/11 09:43:44;;;;;;;43.70;16.62;;;;;;;5.17;88.15;98481.87;1835130;77;20979;-83
2021/12/11 09:46:15;;;;;;;41.83;16.77;;;;;;;5.23;88.14;98489.52;1808115;78;21332;-83
2021/12/11 09:48:44;;;;;;;44.58;17.00;;;;;;;5.29;87.97;98488.17;1811785;77;21078;-82
2021/12/11 09:51:14;;;;;;;43.08;18.55;;;;;;;5.31;87.95;98479.98;1785381;79;21480;-83
2021/12/11 09:53:46;;;;;;;51.65;17.80;;;;;;;5.36;87.64;98478.62;1788822;79;21041;-85
2021/12/11 09:56:21;;;;;;;41.73;16.55;;;;;;;5.28;87.35;98470.14;1819567;77;21015;-83
2021/12/11 09:58:48;;;;;;;47.55;21.57;;;;;;;5.20;87.15;98467.67;1810384;79;21081;-83
2021/12/11 10:01:22;;;;;;;42.65;16.32;;;;;;;5.09;87.58;98456.64;1803976;79;20976;-83
2021/12/11 10:03:57;;;;;;;58.45;21.12;;;;;;;5.07;87.92;98459.67;1804460;77;20932;-83
2021/12/11 10:06:41;;;;;;;48.98;17.92;;;;;;;5.07;87.75;98461.81;1812415;77;20961;-84
2021/12/11 10:09:21;;;;;;;42.35;17.12;;;;;;;5.06;87.99;98467.00;1807437;79;20992;-84
2021/12/11 10:11:59;;;;;;;35.88;14.13;;;;;;;5.06;87.76;98467.00;1792247;79;20984;-83
2021/12/11 10:14:34;;;;;;;47.00;15.13;;;;;;;4.98;88.08;98466.66;1808731;77;20965;-82
2021/12/11 10:17:07;;;;;;;40.65;13.45;;;;;;;5.02;88.05;98462.77;1787444;79;21103;-83
2021/12/11 10:19:33;;;;;;;35.43;14.13;;;;;;;5.05;88.33;98460.13;1805511;79;20997;-84
2021/12/11 10:22:05;;;;;;;41.53;14.45;;;;;;;5.10;88.35;98447.61;1796514;79;20993;-83
2021/12/11 10:24:35;;;;;;;36.25;13.20;;;;;;;5.18;88.42;98439.34;1815782;77;21019;-82
2021/12/11 10:27:05;;;;;;;41.25;15.38;;;;;;;5.24;88.47;98447.42;1796035;79;20980;-83
2021/12/11 10:29:32;;;;;;;41.23;16.30;;;;;;;5.26;88.34;98452.12;1802900;79;21062;-83
2021/12/11 10:32:05;;;;;;;40.52;15.38;;;;;;;5.36;87.98;98456.27;1800900;78;20992;-82
2021/12/11 10:34:32;;;;;;;;;;;;;;;5.37;87.91;98464.42;1808509;79;20967;-83
2021/12/11 10:37:07;;;;;;;31.00;12.10;;;;;;;5.45;88.09;98468.60;1816197;78;20094;-83
2021/12/11 10:39:37;;;;;;;30.50;11.75;;;;;;;5.53;87.64;98465.47;1833482;77;20987;-83
2021/12/11 10:42:05;;;;;;;38.10;14.93;;;;;;;5.67;87.85;98451.95;1809081;77;21011;-83
2021/12/11 10:44:37;;;;;;;32.88;15.00;;;;;;;5.72;87.17;98450.14;1808075;79;21187;-84
2021/12/11 10:47:11;;;;;;;36.00;15.60;;;;;;;5.83;87.33;98452.98;1789133;77;21013;-82
2021/12/11 10:49:40;;;;;;;38.35;14.93;;;;;;;5.85;86.69;98450.81;1785093;78;21043;-88
2021/12/11 10:52:13;;;;;;;32.30;12.63;;;;;;;5.83;86.34;98454.27;1808860;79;21029;-84
2021/12/11 10:54:40;;;;;;;30.70;13.75;;;;;;;5.84;86.33;98452.95;1818570;79;20988;-83
2021/12/11 10:57:07;;;;;;;34.00;13.83;;;;;;;5.84;86.23;98454.70;1800442;79;21060;-83
2021/12/11 10:59:39;;;;;;;37.20;13.75;;;;;;;5.81;86.16;98451.73;1818454;79;21119;-83
2021/12/11 11:02:20;;;;;;;29.90;13.43;;;;;;;5.76;85.97;98440.18;1817230;79;20985;-83
2021/12/11 11:04:52;;;;;;;29.50;10.48;;;;;;;5.80;85.89;98432.41;1819427;78;21039;-82
2021/12/11 11:07:20;;;;;;;33.00;12.40;;;;;;;5.81;85.61;98428.52;1815103;78;20990;-83
2021/12/11 11:09:50;;;;;;;32.40;11.45;;;;;;;5.73;85.78;98427.35;1819516;79;21017;-82
2021/12/11 11:12:22;;;;;;;28.32;11.50;;;;;;;5.77;85.72;98420.42;1803194;79;21005;-83
2021/12/11 11:14:52;;;;;;;33.02;12.58;;;;;;;5.80;85.87;98418.22;1788552;79;21043;-83
2021/12/11 11:17:23;;;;;;;30.12;12.53;;;;;;;5.82;86.48;98419.05;1813675;79;21181;-83
2021/12/11 11:19:52;;;;;;;28.17;11.03;;;;;;;5.83;86.25;98415.58;1818004;79;21299;-84
2021/12/11 11:22:24;;;;;;;28.17;11.30;;;;;;;5.89;85.65;98413.77;1794975;79;21308;-82
2021/12/11 11:25:02;;;;;;;30.57;11.35;;;;;;;5.93;85.46;98413.27;1798742;78;21047;-83
2021/12/11 11:27:28;;;;;;;33.23;14.00;;;;;;;6.00;85.67;98410.17;1796900;79;20980;-82
2021/12/11 11:29:55;;;;;;;31.80;13.93;;;;;;;5.98;85.83;98409.74;1831658;77;21028;-83
2021/12/11 11:32:31;;;;;;;35.52;13.25;;;;;;;5.98;85.38;98403.73;1819785;79;21484;-83
2021/12/11 11:34:55;;;;;;;31.57;13.00;;;;;;;6.00;85.31;98405.85;1818028;77;20961;-83
2021/12/11 11:37:22;;;;;;;29.80;12.30;;;;;;;6.01;84.76;98405.41;1819719;79;21027;-84
2021/12/11 11:39:49;;;;;;;29.87;13.10;;;;;;;6.09;84.95;98405.70;1813984;79;20944;-83
2021/12/11 11:42:20;;;;;;;29.23;12.23;;;;;;;6.05;84.77;98396.73;1817949;79;21029;-84
2021/12/11 11:44:49;;;;;;;28.85;11.93;;;;;;;6.10;84.48;98393.19;1814190;77;20972;-85
2021/12/11 11:47:18;;;;;;;25.25;9.78;;;;;;;6.05;84.23;98396.31;1805714;79;21025;-83
2021/12/11 11:49:46;;;;;;;27.35;12.00;;;;;;;6.00;84.11;98394.69;1819448;78;20988;-84
2021/12/11 11:52:19;;;;;;;29.25;9.83;;;;;;;6.03;84.31;98407.11;1776673;78;21014;-83
2021/12/11 11:54:50;;;;;;;29.63;11.95;;;;;;;6.12;84.34;98403.05;1810608;78;21005;-83
2021/12/11 11:57:25;;;;;;;34.13;10.85;;;;;;;6.15;84.77;98409.45;1807262;77;20991;-83
2021/12/11 11:59:55;;;;;;;25.75;11.18;;;;;;;6.20;85.19;98405.49;1797210;78;21062;-84